Manhattan, MT (59741)

9:17 AM MDT on April 27, 2017 (GMT -0600)
GRR | | Change Station
Active Advisory: Winter Weather Advisory

Elev 4518 ft 45.91 °N, 111.33 °W | Updated 9 seconds ago

Overcast
Overcast
35.2 °F
Feels Like 32 °F
N
3.6
Wind Variable Wind from SSW
Gusts 4.9 mph

Today
High -- | Low -- °F
--% Chance of Precip.
Yesterday
High -- | Low -- °F
Precip. -- in
Pressure 29.74 in
Visibility 9.0 miles
Clouds Few 600 ft
Mostly Cloudy 3300 ft
Overcast 4400 ft
Windchill 32 °F
Dew Point 34 °F
Humidity 94%
Rainfall 0.11 in
Snow Depth Not available.
6:18 AM 8:28 PM
New Moon, 2% visible
METAR KBZN 271456Z 25008KT 9SM UP FEW006 BKN033 OVC044 02/02 A2970 RMK AO2 UPB1358E09B16SNE1358 SLP069 P0000 60003 T00220017 51012
Pressure 29.74 in
Visibility 9.0 miles
Clouds Few 600 ft
Mostly Cloudy 3300 ft
Overcast 4400 ft
Windchill 32 °F
Dew Point 34 °F
Humidity 94%
Rainfall 0.11 in
Snow Depth Not available.
6:18 AM 8:28 PM
New Moon, 2% visible
METAR KBZN 271456Z 25008KT 9SM UP FEW006 BKN033 OVC044 02/02 A2970 RMK AO2 UPB1358E09B16SNE1358 SLP069 P0000 60003 T00220017 51012

Get Your Daily Forecast Email!

Thanks for signing up!

Be on the lookout for a verification email in your inbox.

You'll start receiving severe weather alerts in your inbox..

×

10-Day Weather Forecast

Almanac

Astronomy

Apr. 27, 2017 Rise Set
Actual Time
Civil Twilight
Nautical Twilight
Astronomical Twilight
Moon
Length of Visible Light
Length of Day
Tomorrow will be .
, % of the Moon is Illuminated

Today's Extremes

State Highs State Lows

Community

WunderPhotos

WunderBlog® & News

Nearby

Air Quality

  Air Quality AQ Index Pollutant
Not available.

Snow Depth

Station Depth Elevation

Earthquake Activity

City Distance Mag. Time & Date
Minimum magnitude displayed is 2.5.

Coastal Water Temperatures

Place Temperature

Stations

Nearby Weather Stations

Station Location Temp. Windchill Dew Point Humidity Wind Precip. Elev Updated Type
                   

Watches & Warnings

Winter Weather Advisory
Issued: 8:47 AM MDT Apr. 27, 2017 – National Weather Service

... Winter Weather Advisory remains in effect until noon MDT today
for elevations above 6000 feet...

* locations: Battle Ridge Pass, Targhee Pass, West Yellowstone,
and Raynolds Pass.

* Timing: periods of snow will continue over the higher
elevations of southwest Mt through this morning.

* Accumulations: no new snow accumulation through noon.

* Hazard elevation: for elevations above 6000 feet.

* Impacts: roads are icy in some areas this morning, but will
improve through noon.

Precautionary/preparedness actions...

For specific Road and travel conditions in Montana, dial 5 1 1 .